sensor_id;sensor_type;location;lat;lon;timestamp;pressure;altitude;pressure_sealevel;temperature;humidity
38022;BME280;23832;43.216;27.946;2023-01-15T00:01:00;101602.78;;;7.58;100.00
38022;BME280;23832;43.216;27.946;2023-01-15T00:03:02;101606.09;;;7.60;100.00
38022;BME280;23832;43.216;27.946;2023-01-15T00:05:04;101600.72;;;7.61;100.00
38022;BME280;23832;43.216;27.946;2023-01-15T00:07:06;101593.81;;;7.60;100.00
38022;BME280;23832;43.216;27.946;2023-01-15T00:09:08;101595.47;;;7.61;100.00
38022;BME280;23832;43.216;27.946;2023-01-15T00:11:12;101581.53;;;7.61;100.00
38022;BME280;23832;43.216;27.946;2023-01-15T00:13:14;101586.53;;;7.64;100.00
38022;BME280;23832;43.216;27.946;2023-01-15T00:15:17;101590.81;;;7.65;100.00
38022;BME280;23832;43.216;27.946;2023-01-15T00:17:19;101592.34;;;7.67;100.00
38022;BME280;23832;43.216;27.946;2023-01-15T00:19:21;101592.91;;;7.71;100.00
38022;BME280;23832;43.216;27.946;2023-01-15T00:21:24;101585.75;;;7.73;100.00
38022;BME280;23832;43.216;27.946;2023-01-15T00:23:26;101585.47;;;7.76;100.00
38022;BME280;23832;43.216;27.946;2023-01-15T00:25:45;101582.72;;;7.78;100.00
38022;BME280;23832;43.216;27.946;2023-01-15T00:28:05;101587.81;;;7.79;100.00
38022;BME280;23832;43.216;27.946;2023-01-15T00:30:07;101586.84;;;7.80;100.00
38022;BME280;23832;43.216;27.946;2023-01-15T00:32:11;101588.53;;;7.81;100.00
38022;BME280;23832;43.216;27.946;2023-01-15T00:34:13;101588.53;;;7.81;100.00
38022;BME280;23832;43.216;27.946;2023-01-15T00:36:14;101587.69;;;7.81;100.00
38022;BME280;23832;43.216;27.946;2023-01-15T00:38:17;101580.78;;;7.80;100.00
38022;BME280;23832;43.216;27.946;2023-01-15T00:40:19;101593.91;;;7.80;100.00
38022;BME280;23832;43.216;27.946;2023-01-15T00:42:21;101582.56;;;7.79;100.00
38022;BME280;23832;43.216;27.946;2023-01-15T00:44:26;101587.69;;;7.81;100.00
38022;BME280;23832;43.216;27.946;2023-01-15T00:46:28;101584.25;;;7.80;100.00
38022;BME280;23832;43.216;27.946;2023-01-15T00:48:31;101589.47;;;7.80;100.00
38022;BME280;23832;43.216;27.946;2023-01-15T00:50:33;101578.28;;;7.78;100.00
38022;BME280;23832;43.216;27.946;2023-01-15T00:52:34;101586.16;;;7.78;100.00
38022;BME280;23832;43.216;27.946;2023-01-15T00:54:36;101581.88;;;7.77;100.00
38022;BME280;23832;43.216;27.946;2023-01-15T00:56:38;101591.41;;;7.78;100.00
38022;BME280;23832;43.216;27.946;2023-01-15T00:58:39;101587.13;;;7.77;100.00
38022;BME280;23832;43.216;27.946;2023-01-15T01:00:41;101591.41;;;7.78;100.00
38022;BME280;23832;43.216;27.946;2023-01-15T01:02:43;101586.84;;;7.80;100.00
38022;BME280;23832;43.216;27.946;2023-01-15T01:04:46;101583.28;;;7.81;100.00
38022;BME280;23832;43.216;27.946;2023-01-15T01:06:47;101584.13;;;7.82;100.00
38022;BME280;23832;43.216;27.946;2023-01-15T01:08:50;101584.13;;;7.82;100.00
38022;BME280;23832;43.216;27.946;2023-01-15T01:10:59;101577.09;;;7.82;100.00
38022;BME280;23832;43.216;27.946;2023-01-15T01:13:02;101576.25;;;7.82;100.00
38022;BME280;23832;43.216;27.946;2023-01-15T01:15:04;101567.53;;;7.81;100.00
38022;BME280;23832;43.216;27.946;2023-01-15T01:17:06;101564.91;;;7.81;100.00
38022;BME280;23832;43.216;27.946;2023-01-15T01:19:09;101571.94;;;7.81;100.00
38022;BME280;23832;43.216;27.946;2023-01-15T01:21:13;101571.09;;;7.80;100.00
38022;BME280;23832;43.216;27.946;2023-01-15T01:23:14;101560.59;;;7.80;100.00
38022;BME280;23832;43.216;27.946;2023-01-15T01:25:16;101565.84;;;7.80;100.00
38022;BME280;23832;43.216;27.946;2023-01-15T01:27:20;101565.84;;;7.80;100.00
38022;BME280;23832;43.216;27.946;2023-01-15T01:29:21;101567.53;;;7.81;100.00
38022;BME280;23832;43.216;27.946;2023-01-15T01:31:23;101567.53;;;7.81;100.00
38022;BME280;23832;43.216;27.946;2023-01-15T01:33:25;101574.31;;;7.84;100.00
38022;BME280;23832;43.216;27.946;2023-01-15T01:35:27;101570.88;;;7.83;100.00
38022;BME280;23832;43.216;27.946;2023-01-15T01:37:30;101572.53;;;7.84;100.00
38022;BME280;23832;43.216;27.946;2023-01-15T01:39:31;101573.34;;;7.85;100.00
38022;BME280;23832;43.216;27.946;2023-01-15T01:41:33;101570.72;;;7.85;100.00
38022;BME280;23832;43.216;27.946;2023-01-15T01:43:50;101567.28;;;7.84;100.00
38022;BME280;23832;43.216;27.946;2023-01-15T01:45:52;101571.69;;;7.84;100.00
38022;BME280;23832;43.216;27.946;2023-01-15T01:47:55;101567.28;;;7.84;100.00
38022;BME280;23832;43.216;27.946;2023-01-15T01:49:58;101570.03;;;7.83;100.00
38022;BME280;23832;43.216;27.946;2023-01-15T01:52:03;101567.41;;;7.83;100.00
38022;BME280;23832;43.216;27.946;2023-01-15T01:54:08;101566.59;;;7.82;100.00
38022;BME280;23832;43.216;27.946;2023-01-15T01:56:11;101561.44;;;7.81;100.00
38022;BME280;23832;43.216;27.946;2023-01-15T01:58:16;101569.44;;;7.79;100.00
38022;BME280;23832;43.216;27.946;2023-01-15T02:00:19;101555.63;;;7.77;100.00
38022;BME280;23832;43.216;27.946;2023-01-15T02:02:24;101565.31;;;7.77;100.00
38022;BME280;23832;43.216;27.946;2023-01-15T02:04:26;101570.69;;;7.75;100.00
38022;BME280;23832;43.216;27.946;2023-01-15T02:06:29;101574.28;;;7.74;100.00
38022;BME280;23832;43.216;27.946;2023-01-15T02:08:31;101577.88;;;7.73;100.00
38022;BME280;23832;43.216;27.946;2023-01-15T02:10:35;101584.88;;;7.73;100.00
38022;BME280;23832;43.216;27.946;2023-01-15T02:12:37;101570.25;;;7.70;100.00
38022;BME280;23832;43.216;27.946;2023-01-15T02:14:41;101574.53;;;7.71;100.00
38022;BME280;23832;43.216;27.946;2023-01-15T02:16:51;101566.78;;;7.69;100.00
38022;BME280;23832;43.216;27.946;2023-01-15T02:18:55;101560.00;;;7.67;100.00
38022;BME280;23832;43.216;27.946;2023-01-15T02:21:00;101557.38;;;7.67;100.00
38022;BME280;23832;43.216;27.946;2023-01-15T02:25:23;101556.69;;;7.65;100.00
38022;BME280;23832;43.216;27.946;2023-01-15T02:27:31;101568.25;;;7.62;100.00
38022;BME280;23832;43.216;27.946;2023-01-15T02:29:36;101558.72;;;7.61;100.00
38022;BME280;23832;43.216;27.946;2023-01-15T02:31:40;101570.19;;;7.60;100.00
38022;BME280;23832;43.216;27.946;2023-01-15T02:33:44;101559.69;;;7.60;100.00
38022;BME280;23832;43.216;27.946;2023-01-15T02:35:49;101558.03;;;7.59;100.00
38022;BME280;23832;43.216;27.946;2023-01-15T02:37:53;101551.97;;;7.59;100.00
38022;BME280;23832;43.216;27.946;2023-01-15T02:39:55;101556.53;;;7.57;100.00
38022;BME280;23832;43.216;27.946;2023-01-15T02:41:59;101551.28;;;7.57;100.00
38022;BME280;23832;43.216;27.946;2023-01-15T02:44:04;101552.22;;;7.56;100.00
38022;BME280;23832;43.216;27.946;2023-01-15T02:46:07;101550.53;;;7.55;100.00
38022;BME280;23832;43.216;27.946;2023-01-15T02:48:11;101548.06;;;7.53;100.00
38022;BME280;23832;43.216;27.946;2023-01-15T02:52:17;101553.56;;;7.50;100.00
38022;BME280;23832;43.216;27.946;2023-01-15T02:54:20;101550.25;;;7.48;100.00
38022;BME280;23832;43.216;27.946;2023-01-15T02:56:24;101559.94;;;7.48;100.00
38022;BME280;23832;43.216;27.946;2023-01-15T02:58:27;101564.34;;;7.47;100.00
38022;BME280;23832;43.216;27.946;2023-01-15T03:00:33;101558.25;;;7.47;100.00
38022;BME280;23832;43.216;27.946;2023-01-15T03:02:38;101559.09;;;7.47;100.00
38022;BME280;23832;43.216;27.946;2023-01-15T03:04:43;101553.84;;;7.47;100.00
38022;BME280;23832;43.216;27.946;2023-01-15T03:06:48;101555.63;;;7.47;100.00
38022;BME280;23832;43.216;27.946;2023-01-15T03:08:52;101547.78;;;7.47;100.00
38022;BME280;23832;43.216;27.946;2023-01-15T03:10:55;101549.56;;;7.46;100.00
38022;BME280;23832;43.216;27.946;2023-01-15T03:13:01;101551.22;;;7.47;100.00
38022;BME280;23832;43.216;27.946;2023-01-15T03:15:06;101546.09;;;7.46;100.00
38022;BME280;23832;43.216;27.946;2023-01-15T03:17:13;101544.41;;;7.45;100.00
38022;BME280;23832;43.216;27.946;2023-01-15T03:19:17;101548.69;;;7.46;100.00
38022;BME280;23832;43.216;27.946;2023-01-15T03:21:23;101539.91;;;7.47;100.00
38022;BME280;23832;43.216;27.946;2023-01-15T03:23:27;101543.22;;;7.49;100.00
38022;BME280;23832;43.216;27.946;2023-01-15T03:25:29;101540.59;;;7.49;100.00
38022;BME280;23832;43.216;27.946;2023-01-15T03:27:34;101540.59;;;7.49;100.00
38022;BME280;23832;43.216;27.946;2023-01-15T03:29:36;101542.25;;;7.50;100.00
38022;BME280;23832;43.216;27.946;2023-01-15T03:31:38;101542.25;;;7.50;100.00
38022;BME280;23832;43.216;27.946;2023-01-15T03:33:42;101550.00;;;7.51;100.00
38022;BME280;23832;43.216;27.946;2023-01-15T03:35:46;101556.06;;;7.52;100.00
38022;BME280;23832;43.216;27.946;2023-01-15T03:37:48;101552.47;;;7.53;100.00
38022;BME280;23832;43.216;27.946;2023-01-15T03:39:50;101555.09;;;7.53;100.00
38022;BME280;23832;43.216;27.946;2023-01-15T03:41:55;101550.69;;;7.53;100.00
38022;BME280;23832;43.216;27.946;2023-01-15T03:44:04;101552.47;;;7.53;100.00
38022;BME280;23832;43.216;27.946;2023-01-15T03:46:10;101559.53;;;7.52;100.00
38022;BME280;23832;43.216;27.946;2023-01-15T03:48:15;101550.13;;;7.50;100.00
38022;BME280;23832;43.216;27.946;2023-01-15T03:50:23;101555.50;;;7.48;100.00
38022;BME280;23832;43.216;27.946;2023-01-15T03:52:29;101556.34;;;7.49;100.00
38022;BME280;23832;43.216;27.946;2023-01-15T03:54:34;101558.97;;;7.49;100.00
38022;BME280;23832;43.216;27.946;2023-01-15T03:56:41;101561.59;;;7.49;100.00
38022;BME280;23832;43.216;27.946;2023-01-15T03:58:48;101557.16;;;7.49;100.00
38022;BME280;23832;43.216;27.946;2023-01-15T04:00:51;101561.44;;;7.50;100.00
38022;BME280;23832;43.216;27.946;2023-01-15T04:02:55;101564.91;;;7.51;100.00
38022;BME280;23832;43.216;27.946;2023-01-15T04:04:57;101570.16;;;7.51;100.00
38022;BME280;23832;43.216;27.946;2023-01-15T04:07:02;101570.16;;;7.51;100.00
38022;BME280;23832;43.216;27.946;2023-01-15T04:09:05;101568.34;;;7.51;100.00
38022;BME280;23832;43.216;27.946;2023-01-15T04:11:07;101574.31;;;7.53;100.00
38022;BME280;23832;43.216;27.946;2023-01-15T04:13:09;101575.97;;;7.54;100.00
38022;BME280;23832;43.216;27.946;2023-01-15T04:15:11;101568.91;;;7.55;100.00
38022;BME280;23832;43.216;27.946;2023-01-15T04:17:13;101568.91;;;7.55;100.00
38022;BME280;23832;43.216;27.946;2023-01-15T04:19:15;101568.81;;;7.56;100.00
38022;BME280;23832;43.216;27.946;2023-01-15T04:21:16;101571.31;;;7.58;100.00
38022;BME280;23832;43.216;27.946;2023-01-15T04:23:20;101572.13;;;7.58;100.00
38022;BME280;23832;43.216;27.946;2023-01-15T04:25:21;101574.75;;;7.58;100.00
38022;BME280;23832;43.216;27.946;2023-01-15T04:27:24;101576.53;;;7.58;100.00
38022;BME280;23832;43.216;27.946;2023-01-15T04:29:26;101565.22;;;7.57;100.00
38022;BME280;23832;43.216;27.946;2023-01-15T04:31:28;101567.72;;;7.59;100.00
38022;BME280;23832;43.216;27.946;2023-01-15T04:33:31;101572.81;;;7.60;100.00
38022;BME280;23832;43.216;27.946;2023-01-15T04:35:33;101571.03;;;7.61;100.00
38022;BME280;23832;43.216;27.946;2023-01-15T04:37:35;101560.53;;;7.61;100.00
38022;BME280;23832;43.216;27.946;2023-01-15T04:39:38;101567.44;;;7.62;100.00
38022;BME280;23832;43.216;27.946;2023-01-15T04:41:40;101569.22;;;7.61;100.00
38022;BME280;23832;43.216;27.946;2023-01-15T04:44:01;101562.91;;;7.64;100.00
38022;BME280;23832;43.216;27.946;2023-01-15T04:46:07;101563.75;;;7.64;100.00
38022;BME280;23832;43.216;27.946;2023-01-15T04:48:09;101565.41;;;7.65;100.00
38022;BME280;23832;43.216;27.946;2023-01-15T04:50:11;101567.06;;;7.66;100.00
38022;BME280;23832;43.216;27.946;2023-01-15T04:52:13;101574.09;;;7.66;100.00
38022;BME280;23832;43.216;27.946;2023-01-15T04:54:15;101568.84;;;7.66;100.00
38022;BME280;23832;43.216;27.946;2023-01-15T04:56:18;101567.19;;;7.65;100.00
38022;BME280;23832;43.216;27.946;2023-01-15T04:58:20;101575.06;;;7.65;100.00
38022;BME280;23832;43.216;27.946;2023-01-15T05:00:22;101576.72;;;7.66;100.00
38022;BME280;23832;43.216;27.946;2023-01-15T05:02:23;101581.00;;;7.67;100.00
38022;BME280;23832;43.216;27.946;2023-01-15T05:04:25;101586.13;;;7.68;100.00
38022;BME280;23832;43.216;27.946;2023-01-15T05:06:27;101591.25;;;7.70;100.00
38022;BME280;23832;43.216;27.946;2023-01-15T05:08:30;101591.25;;;7.70;100.00
38022;BME280;23832;43.216;27.946;2023-01-15T05:10:32;101593.88;;;7.70;100.00
38022;BME280;23832;43.216;27.946;2023-01-15T05:12:36;101593.88;;;7.70;100.00
38022;BME280;23832;43.216;27.946;2023-01-15T05:14:37;101594.00;;;7.68;100.00
38022;BME280;23832;43.216;27.946;2023-01-15T05:16:39;101594.13;;;7.67;100.00
38022;BME280;23832;43.216;27.946;2023-01-15T05:18:41;101601.31;;;7.65;100.00
38022;BME280;23832;43.216;27.946;2023-01-15T05:20:43;101601.31;;;7.65;100.00
38022;BME280;23832;43.216;27.946;2023-01-15T05:22:44;101603.09;;;7.64;100.00
38022;BME280;23832;43.216;27.946;2023-01-15T05:24:46;101612.78;;;7.64;100.00
38022;BME280;23832;43.216;27.946;2023-01-15T05:26:48;101613.59;;;7.64;100.00
38022;BME280;23832;43.216;27.946;2023-01-15T05:28:53;101617.06;;;7.65;100.00
38022;BME280;23832;43.216;27.946;2023-01-15T05:30:55;101614.53;;;7.63;100.00
38022;BME280;23832;43.216;27.946;2023-01-15T05:32:56;101611.91;;;7.63;100.00
38022;BME280;23832;43.216;27.946;2023-01-15T05:34:59;101609.44;;;7.62;100.00
38022;BME280;23832;43.216;27.946;2023-01-15T05:37:00;101611.22;;;7.61;100.00
38022;BME280;23832;43.216;27.946;2023-01-15T05:39:02;101607.06;;;7.59;100.00
38022;BME280;23832;43.216;27.946;2023-01-15T05:41:04;101612.59;;;7.56;100.00
38022;BME280;23832;43.216;27.946;2023-01-15T05:43:27;101612.59;;;7.56;100.00
38022;BME280;23832;43.216;27.946;2023-01-15T05:45:32;101603.03;;;7.55;100.00
38022;BME280;23832;43.216;27.946;2023-01-15T05:47:34;101607.56;;;7.53;100.00
38022;BME280;23832;43.216;27.946;2023-01-15T05:49:36;101605.91;;;7.52;100.00
38022;BME280;23832;43.216;27.946;2023-01-15T05:51:38;101614.06;;;7.49;100.00
38022;BME280;23832;43.216;27.946;2023-01-15T05:53:40;101614.28;;;7.46;100.00
38022;BME280;23832;43.216;27.946;2023-01-15T05:55:42;101610.16;;;7.43;100.00
38022;BME280;23832;43.216;27.946;2023-01-15T05:57:44;101608.75;;;7.39;100.00
38022;BME280;23832;43.216;27.946;2023-01-15T05:59:45;101612.44;;;7.36;100.00
38022;BME280;23832;43.216;27.946;2023-01-15T06:01:51;101612.72;;;7.33;100.00
38022;BME280;23832;43.216;27.946;2023-01-15T06:03:52;101608.69;;;7.29;100.00
38022;BME280;23832;43.216;27.946;2023-01-15T06:05:55;101609.75;;;7.27;100.00
38022;BME280;23832;43.216;27.946;2023-01-15T06:07:56;101614.91;;;7.28;100.00
38022;BME280;23832;43.216;27.946;2023-01-15T06:09:58;101612.28;;;7.28;100.00
38022;BME280;23832;43.216;27.946;2023-01-15T06:12:00;101611.31;;;7.29;100.00
38022;BME280;23832;43.216;27.946;2023-01-15T06:14:01;101624.16;;;7.32;100.00
38022;BME280;23832;43.216;27.946;2023-01-15T06:16:03;101617.81;;;7.35;100.00
38022;BME280;23832;43.216;27.946;2023-01-15T06:18:07;101624.50;;;7.39;100.00
38022;BME280;23832;43.216;27.946;2023-01-15T06:20:09;101628.38;;;7.45;100.00
38022;BME280;23832;43.216;27.946;2023-01-15T06:22:11;101620.97;;;7.50;100.00
38022;BME280;23832;43.216;27.946;2023-01-15T06:24:13;101621.28;;;7.56;100.00
38022;BME280;23832;43.216;27.946;2023-01-15T06:26:17;101615.13;;;7.67;100.00
38022;BME280;23832;43.216;27.946;2023-01-15T06:28:18;101621.00;;;7.80;100.00
38022;BME280;23832;43.216;27.946;2023-01-15T06:30:20;101620.94;;;7.91;100.00
38022;BME280;23832;43.216;27.946;2023-01-15T06:32:21;101618.19;;;8.03;100.00
38022;BME280;23832;43.216;27.946;2023-01-15T06:34:24;101621.41;;;8.16;100.00
38022;BME280;23832;43.216;27.946;2023-01-15T06:36:26;101622.28;;;8.26;100.00
38022;BME280;23832;43.216;27.946;2023-01-15T06:38:29;101612.78;;;8.35;100.00
38022;BME280;23832;43.216;27.946;2023-01-15T06:40:30;101612.13;;;8.42;100.00
38022;BME280;23832;43.216;27.946;2023-01-15T06:42:33;101615.88;;;8.49;100.00
38022;BME280;23832;43.216;27.946;2023-01-15T06:44:58;101608.97;;;8.58;100.00
38022;BME280;23832;43.216;27.946;2023-01-15T06:47:17;101617.84;;;8.67;100.00
38022;BME280;23832;43.216;27.946;2023-01-15T06:49:24;101615.91;;;8.78;100.00
38022;BME280;23832;43.216;27.946;2023-01-15T06:51:26;101612.06;;;8.92;100.00
38022;BME280;23832;43.216;27.946;2023-01-15T06:53:27;101619.25;;;9.09;100.00
38022;BME280;23832;43.216;27.946;2023-01-15T06:55:29;101613.69;;;9.32;100.00
38022;BME280;23832;43.216;27.946;2023-01-15T06:57:31;101615.03;;;9.55;100.00
38022;BME280;23832;43.216;27.946;2023-01-15T06:59:32;101616.06;;;9.82;100.00
38022;BME280;23832;43.216;27.946;2023-01-15T07:01:34;101625.81;;;10.09;100.00
38022;BME280;23832;43.216;27.946;2023-01-15T07:03:36;101623.06;;;10.38;100.00
38022;BME280;23832;43.216;27.946;2023-01-15T07:05:39;101626.06;;;10.70;100.00
38022;BME280;23832;43.216;27.946;2023-01-15T07:07:40;101627.03;;;11.05;100.00
38022;BME280;23832;43.216;27.946;2023-01-15T07:09:42;101631.91;;;11.35;100.00
38022;BME280;23832;43.216;27.946;2023-01-15T07:11:44;101628.13;;;11.64;100.00
38022;BME280;23832;43.216;27.946;2023-01-15T07:13:59;101622.38;;;11.94;100.00
38022;BME280;23832;43.216;27.946;2023-01-15T07:16:06;101622.50;;;12.19;100.00
38022;BME280;23832;43.216;27.946;2023-01-15T07:18:26;101624.59;;;12.41;100.00
38022;BME280;23832;43.216;27.946;2023-01-15T07:20:27;101622.28;;;12.55;100.00
38022;BME280;23832;43.216;27.946;2023-01-15T07:22:30;101619.34;;;12.66;100.00
38022;BME280;23832;43.216;27.946;2023-01-15T07:24:32;101620.69;;;12.70;100.00
38022;BME280;23832;43.216;27.946;2023-01-15T07:26:34;101619.69;;;12.71;100.00
38022;BME280;23832;43.216;27.946;2023-01-15T07:28:35;101614.38;;;12.71;100.00
38022;BME280;23832;43.216;27.946;2023-01-15T07:30:37;101610.09;;;12.70;100.00
38022;BME280;23832;43.216;27.946;2023-01-15T07:32:38;101609.56;;;12.66;100.00
38022;BME280;23832;43.216;27.946;2023-01-15T07:34:40;101611.91;;;12.61;100.00
38022;BME280;23832;43.216;27.946;2023-01-15T07:36:42;101608.25;;;12.54;100.00
38022;BME280;23832;43.216;27.946;2023-01-15T07:38:45;101605.41;;;12.47;100.00
38022;BME280;23832;43.216;27.946;2023-01-15T07:40:46;101605.25;;;12.41;100.00
38022;BME280;23832;43.216;27.946;2023-01-15T07:43:08;101604.22;;;12.34;99.82
38022;BME280;23832;43.216;27.946;2023-01-15T07:45:28;101610.97;;;12.28;97.98
38022;BME280;23832;43.216;27.946;2023-01-15T07:48:01;101605.34;;;12.23;95.63
38022;BME280;23832;43.216;27.946;2023-01-15T07:50:22;101608.63;;;12.17;94.72
38022;BME280;23832;43.216;27.946;2023-01-15T07:52:23;101609.63;;;12.16;95.95
38022;BME280;23832;43.216;27.946;2023-01-15T07:54:26;101607.63;;;12.18;100.00
38022;BME280;23832;43.216;27.946;2023-01-15T07:56:28;101609.28;;;12.19;100.00
38022;BME280;23832;43.216;27.946;2023-01-15T07:58:31;101609.28;;;12.19;100.00
38022;BME280;23832;43.216;27.946;2023-01-15T08:00:32;101614.75;;;12.17;100.00
38022;BME280;23832;43.216;27.946;2023-01-15T08:02:34;101612.25;;;12.16;100.00
38022;BME280;23832;43.216;27.946;2023-01-15T08:04:35;101619.19;;;12.17;100.00
38022;BME280;23832;43.216;27.946;2023-01-15T08:06:37;101610.59;;;12.15;98.36
38022;BME280;23832;43.216;27.946;2023-01-15T08:08:39;101606.59;;;12.11;96.49
38022;BME280;23832;43.216;27.946;2023-01-15T08:10:42;101606.94;;;12.08;94.60
38022;BME280;23832;43.216;27.946;2023-01-15T08:13:07;101605.06;;;12.00;92.64
38022;BME280;23832;43.216;27.946;2023-01-15T08:15:26;101609.16;;;11.94;93.23
38022;BME280;23832;43.216;27.946;2023-01-15T08:17:28;101601.72;;;11.90;93.16
38022;BME280;23832;43.216;27.946;2023-01-15T08:19:30;101603.72;;;11.88;92.34
38022;BME280;23832;43.216;27.946;2023-01-15T08:21:31;101599.53;;;11.85;93.52
38022;BME280;23832;43.216;27.946;2023-01-15T08:23:33;101610.13;;;11.85;93.54
38022;BME280;23832;43.216;27.946;2023-01-15T08:25:34;101612.09;;;11.83;92.69
38022;BME280;23832;43.216;27.946;2023-01-15T08:27:37;101602.50;;;11.82;93.17
38022;BME280;23832;43.216;27.946;2023-01-15T08:29:39;101604.00;;;11.85;94.32
38022;BME280;23832;43.216;27.946;2023-01-15T08:31:41;101608.16;;;11.87;96.16
38022;BME280;23832;43.216;27.946;2023-01-15T08:33:42;101605.69;;;11.94;97.04
38022;BME280;23832;43.216;27.946;2023-01-15T08:35:44;101602.28;;;12.02;98.57
38022;BME280;23832;43.216;27.946;2023-01-15T08:37:46;101605.63;;;12.12;97.81
38022;BME280;23832;43.216;27.946;2023-01-15T08:39:47;101605.00;;;12.18;96.69
38022;BME280;23832;43.216;27.946;2023-01-15T08:41:50;101604.38;;;12.24;94.70
38022;BME280;23832;43.216;27.946;2023-01-15T08:43:52;101602.88;;;12.30;94.38
38022;BME280;23832;43.216;27.946;2023-01-15T08:45:55;101597.13;;;12.34;93.44
38022;BME280;23832;43.216;27.946;2023-01-15T08:47:57;101592.31;;;12.38;92.80
38022;BME280;23832;43.216;27.946;2023-01-15T08:49:59;101594.50;;;12.42;92.87
38022;BME280;23832;43.216;27.946;2023-01-15T08:52:01;101599.47;;;12.45;91.26
38022;BME280;23832;43.216;27.946;2023-01-15T08:54:03;101596.81;;;12.45;88.34
38022;BME280;23832;43.216;27.946;2023-01-15T08:56:07;101598.13;;;12.41;85.33
38022;BME280;23832;43.216;27.946;2023-01-15T08:58:12;101600.25;;;12.38;83.88
38022;BME280;23832;43.216;27.946;2023-01-15T09:00:20;101589.53;;;12.31;82.90
38022;BME280;23832;43.216;27.946;2023-01-15T09:02:23;101590.16;;;12.25;82.22
38022;BME280;23832;43.216;27.946;2023-01-15T09:04:25;101592.44;;;12.20;81.68
38022;BME280;23832;43.216;27.946;2023-01-15T09:06:26;101587.63;;;12.15;82.18
38022;BME280;23832;43.216;27.946;2023-01-15T09:08:28;101584.47;;;12.12;82.05
38022;BME280;23832;43.216;27.946;2023-01-15T09:10:30;101583.97;;;12.08;82.71
38022;BME280;23832;43.216;27.946;2023-01-15T09:12:32;101583.16;;;12.08;84.13
38022;BME280;23832;43.216;27.946;2023-01-15T09:14:33;101587.59;;;12.07;84.70
38022;BME280;23832;43.216;27.946;2023-01-15T09:16:36;101578.69;;;12.08;84.64
38022;BME280;23832;43.216;27.946;2023-01-15T09:18:38;101575.06;;;12.09;84.62
38022;BME280;23832;43.216;27.946;2023-01-15T09:20:40;101576.03;;;12.08;83.29
38022;BME280;23832;43.216;27.946;2023-01-15T09:22:42;101568.28;;;12.07;83.05
38022;BME280;23832;43.216;27.946;2023-01-15T09:24:44;101570.25;;;12.05;82.28
38022;BME280;23832;43.216;27.946;2023-01-15T09:26:45;101562.63;;;12.02;82.20
38022;BME280;23832;43.216;27.946;2023-01-15T09:28:47;101558.50;;;11.99;81.96
38022;BME280;23832;43.216;27.946;2023-01-15T09:30:49;101559.31;;;12.00;82.35
38022;BME280;23832;43.216;27.946;2023-01-15T09:32:52;101555.84;;;11.99;82.76
38022;BME280;23832;43.216;27.946;2023-01-15T09:34:54;101549.09;;;11.97;81.79
38022;BME280;23832;43.216;27.946;2023-01-15T09:36:56;101558.97;;;11.94;82.42
38022;BME280;23832;43.216;27.946;2023-01-15T09:38:58;101553.69;;;11.94;82.24
38022;BME280;23832;43.216;27.946;2023-01-15T09:41:01;101555.50;;;11.94;82.57
38022;BME280;23832;43.216;27.946;2023-01-15T09:43:29;101558.47;;;11.91;80.52
38022;BME280;23832;43.216;27.946;2023-01-15T09:45:36;101550.34;;;11.84;79.77
38022;BME280;23832;43.216;27.946;2023-01-15T09:47:45;101550.13;;;11.78;80.22
38022;BME280;23832;43.216;27.946;2023-01-15T09:50:02;101544.31;;;11.74;81.17
38022;BME280;23832;43.216;27.946;2023-01-15T09:52:07;101546.63;;;11.69;81.40
38022;BME280;23832;43.216;27.946;2023-01-15T09:54:17;101546.91;;;11.66;81.71
38022;BME280;23832;43.216;27.946;2023-01-15T09:56:22;101544.44;;;11.64;83.48
38022;BME280;23832;43.216;27.946;2023-01-15T09:58:26;101543.78;;;11.62;83.85
38022;BME280;23832;43.216;27.946;2023-01-15T10:00:33;101542.13;;;11.61;83.59
38022;BME280;23832;43.216;27.946;2023-01-15T10:02:37;101535.31;;;11.59;83.93
38022;BME280;23832;43.216;27.946;2023-01-15T10:04:41;101530.03;;;11.59;84.61
38022;BME280;23832;43.216;27.946;2023-01-15T10:06:47;101531.72;;;11.60;85.53
38022;BME280;23832;43.216;27.946;2023-01-15T10:08:50;101525.44;;;11.61;85.65
38022;BME280;23832;43.216;27.946;2023-01-15T10:11:01;101525.28;;;11.62;86.08
38022;BME280;23832;43.216;27.946;2023-01-15T10:13:05;101517.19;;;11.64;86.28
38022;BME280;23832;43.216;27.946;2023-01-15T10:15:13;101517.69;;;11.68;86.27
38022;BME280;23832;43.216;27.946;2023-01-15T10:17:18;101519.22;;;11.70;87.28
38022;BME280;23832;43.216;27.946;2023-01-15T10:19:21;101512.63;;;11.74;87.42
38022;BME280;23832;43.216;27.946;2023-01-15T10:21:26;101513.97;;;11.78;88.16
38022;BME280;23832;43.216;27.946;2023-01-15T10:23:45;101509.22;;;11.82;87.65
38022;BME280;23832;43.216;27.946;2023-01-15T10:25:54;101509.72;;;11.85;88.02
38022;BME280;23832;43.216;27.946;2023-01-15T10:27:59;101499.50;;;11.90;86.97
38022;BME280;23832;43.216;27.946;2023-01-15T10:30:04;101498.19;;;11.94;87.41
38022;BME280;23832;43.216;27.946;2023-01-15T10:32:09;101489.63;;;12.01;87.78
38022;BME280;23832;43.216;27.946;2023-01-15T10:34:26;101486.34;;;12.07;88.20
38022;BME280;23832;43.216;27.946;2023-01-15T10:36:31;101491.13;;;12.11;88.34
38022;BME280;23832;43.216;27.946;2023-01-15T10:38:38;101493.13;;;12.17;88.05
38022;BME280;23832;43.216;27.946;2023-01-15T10:40:50;101481.41;;;12.20;86.89
38022;BME280;23832;43.216;27.946;2023-01-15T10:42:56;101483.88;;;12.21;85.31